createdAt,value
2016-05-17T00:02:49.209Z,5.9
2016-05-17T00:06:01.544Z,5.8
2016-05-17T00:09:12.618Z,5.8
2016-05-17T00:12:30.158Z,5.8
2016-05-17T00:15:32.774Z,5.8
2016-05-17T00:18:45.251Z,5.8
2016-05-17T00:21:55.604Z,5.8
2016-05-17T00:25:10.051Z,5.7
2016-05-17T00:28:28.388Z,5.7
2016-05-17T00:31:34.989Z,5.7
2016-05-17T00:34:37.497Z,5.7
2016-05-17T00:37:50.178Z,5.7
2016-05-17T00:41:02.577Z,5.7
2016-05-17T00:44:15.056Z,5.6
2016-05-17T00:47:32.377Z,5.6
2016-05-17T00:50:34.774Z,5.5
2016-05-17T00:53:47.346Z,5.5
2016-05-17T00:56:59.401Z,5.4
2016-05-17T01:00:11.818Z,5.4
2016-05-17T01:03:29.748Z,5.4
2016-05-17T01:06:31.567Z,5.4
2016-05-17T01:09:43.811Z,5.4
2016-05-17T01:12:56.538Z,5.5
2016-05-17T01:16:07.264Z,5.4
2016-05-17T01:19:26.588Z,5.4
2016-05-17T01:22:34.158Z,5.4
2016-05-17T01:25:36.901Z,5.4
2016-05-17T01:28:46.987Z,5.4
2016-05-17T01:32:01.557Z,5.4
2016-05-17T01:35:13.818Z,5.4
2016-05-17T01:38:31.061Z,5.4
2016-05-17T01:41:33.725Z,5.4
2016-05-17T01:44:46.014Z,5.4
2016-05-17T01:47:58.569Z,5.4
2016-05-17T01:51:10.861Z,5.3
2016-05-17T01:54:28.807Z,5.3
2016-05-17T01:57:31.440Z,5.4
2016-05-17T02:00:43.713Z,5.4
2016-05-17T02:03:56.112Z,5.4
2016-05-17T02:07:08.136Z,5.4
2016-05-17T02:10:20.397Z,5.4
2016-05-17T02:13:31.295Z,5.4
2016-05-17T02:16:43.678Z,5.4
2016-05-17T02:19:55.937Z,5.3
2016-05-17T02:23:08.507Z,5.3
2016-05-17T02:26:26.221Z,5.3
2016-05-17T02:29:33.698Z,5.3
2016-05-17T02:32:36.424Z,5.4
2016-05-17T02:35:48.948Z,5.4
2016-05-17T02:39:01.456Z,5.3
2016-05-17T02:42:14.108Z,5.3
2016-05-17T02:45:31.709Z,5.4
2016-05-17T02:48:34.342Z,5.4
2016-05-17T02:51:46.976Z,5.4
2016-05-17T02:54:59.468Z,5.4
2016-05-17T02:58:11.869Z,5.4
2016-05-17T03:01:28.721Z,5.4
2016-05-17T03:04:31.292Z,5.3
2016-05-17T03:07:43.956Z,5.4
2016-05-17T03:10:56.308Z,5.3
2016-05-17T03:14:08.738Z,5.2
2016-05-17T03:17:26.405Z,5.2
2016-05-17T03:20:33.850Z,5.2
2016-05-17T03:23:36.358Z,5.2
2016-05-17T03:26:48.757Z,5.2
2016-05-17T03:30:01.249Z,5.2
2016-05-17T03:33:13.668Z,5.2
2016-05-17T03:36:31.128Z,5.2
2016-05-17T03:39:33.730Z,5.3
2016-05-17T03:42:45.691Z,5.3
2016-05-17T03:45:58.152Z,5.3
2016-05-17T03:49:10.661Z,5.3
2016-05-17T03:52:28.218Z,5.3
2016-05-17T03:55:35.741Z,5.3
2016-05-17T03:58:38.265Z,5.3
2016-05-17T04:01:50.617Z,5.3
2016-05-17T04:05:03.172Z,5.4
2016-05-17T04:08:15.823Z,5.4
2016-05-17T04:11:33.175Z,5.3
2016-05-17T04:14:35.683Z,5.4
2016-05-17T04:17:48.300Z,5.5
2016-05-17T04:21:00.731Z,5.5
2016-05-17T04:24:13.304Z,5.5
2016-05-17T04:27:31.093Z,5.5
2016-05-17T04:30:33.741Z,5.4
2016-05-17T04:33:43.437Z,5.5
2016-05-17T04:36:56.071Z,5.5
2016-05-17T04:40:07.907Z,5.5
2016-05-17T04:43:20.401Z,5.6
2016-05-17T04:46:32.598Z,5.5
2016-05-17T04:49:42.980Z,5.6
2016-05-17T04:52:55.270Z,5.6
2016-05-17T04:56:07.591Z,5.6
2016-05-17T04:59:20.007Z,5.5
2016-05-17T05:02:32.219Z,5.4
2016-05-17T05:05:44.492Z,5.4
2016-05-17T05:08:56.781Z,5.4
2016-05-17T05:12:09.319Z,5.3
2016-05-17T05:15:26.975Z,5.4
2016-05-17T05:18:34.671Z,5.4
2016-05-17T05:21:35.106Z,5.4
2016-05-17T05:24:49.800Z,5.5
2016-05-17T05:28:02.174Z,5.5
2016-05-17T05:31:14.607Z,5.6
2016-05-17T05:34:31.949Z,5.6
2016-05-17T05:37:34.599Z,5.7
2016-05-17T05:40:46.951Z,5.8
2016-05-17T05:43:58.444Z,5.9
2016-05-17T05:47:10.890Z,5.9
2016-05-17T05:50:28.337Z,5.8
2016-05-17T05:53:35.831Z,5.8
2016-05-17T05:56:38.432Z,5.9
2016-05-17T05:59:50.940Z,5.9
2016-05-17T06:03:03.527Z,5.9
2016-05-17T06:06:15.628Z,5.9
2016-05-17T06:09:33.030Z,6
2016-05-17T06:12:35.693Z,6.1
2016-05-17T06:15:45.249Z,6.2
2016-05-17T06:18:57.804Z,6.4
2016-05-17T06:22:10.218Z,6.5
2016-05-17T06:25:27.854Z,6.5
2016-05-17T06:28:35.517Z,6.5
2016-05-17T06:31:38.120Z,6.5
2016-05-17T06:34:50.394Z,6.6
2016-05-17T06:38:01.027Z,6.7
2016-05-17T06:41:15.582Z,6.8
2016-05-17T06:44:33.311Z,6.9
2016-05-17T06:47:35.960Z,7
2016-05-17T06:50:48.390Z,7
2016-05-17T06:54:00.789Z,6.9
2016-05-17T06:57:13.093Z,6.9
2016-05-17T07:00:30.667Z,6.9
2016-05-17T07:03:33.269Z,7
2016-05-17T07:06:45.777Z,7.2
2016-05-17T07:09:58.457Z,7.3
2016-05-17T07:13:11.215Z,7.3
2016-05-17T07:19:36.640Z,7.8
2016-05-17T07:22:39.367Z,8.1
2016-05-17T07:25:52.171Z,8.3
2016-05-17T07:29:04.679Z,8.4
2016-05-17T07:32:17.437Z,8.5
2016-05-17T07:35:35.183Z,8.6
2016-05-17T07:38:38.019Z,8.7
2016-05-17T07:41:50.730Z,8.7
2016-05-17T07:45:03.441Z,8.8
2016-05-17T07:48:16.013Z,8.8
2016-05-17T07:51:33.773Z,8.8
2016-05-17T07:54:36.546Z,8.8
2016-05-17T07:57:49.211Z,9
2016-05-17T08:01:01.828Z,9
2016-05-17T08:04:14.336Z,9
2016-05-17T08:07:31.597Z,8.9
2016-05-17T08:10:34.214Z,8.9
2016-05-17T08:13:46.925Z,8.8
2016-05-17T08:16:59.512Z,8.7
2016-05-17T08:20:11.926Z,8.5
2016-05-17T08:23:29.187Z,8.3
2016-05-17T08:26:36.757Z,8.2
2016-05-17T08:29:39.187Z,8.1
2016-05-17T08:32:51.711Z,8.3
2016-05-17T08:36:04.001Z,8.7
2016-05-17T08:39:16.275Z,9.2
2016-05-17T08:42:33.269Z,9.7
2016-05-17T08:45:35.605Z,10.1
2016-05-17T08:48:48.113Z,10.1
2016-05-17T08:51:59.496Z,9.8
2016-05-17T08:55:11.599Z,9.4
2016-05-17T08:58:27.437Z,9
2016-05-17T09:01:34.258Z,8.7
2016-05-17T09:04:36.203Z,8.5
2016-05-17T09:07:48.508Z,8.4
2016-05-17T09:11:00.079Z,8.4
2016-05-17T09:14:11.180Z,8.3
2016-05-17T09:17:25.129Z,8.4
2016-05-17T09:20:36.496Z,8.7
2016-05-17T09:23:38.349Z,8.9
2016-05-17T09:26:53.341Z,9.2
2016-05-17T09:30:01.521Z,9.4
2016-05-17T09:33:12.685Z,9.8
2016-05-17T09:36:29.743Z,10.6
2016-05-17T09:39:36.845Z,11.3
2016-05-17T09:42:39.228Z,11.5
2016-05-17T09:45:50.938Z,11.4
2016-05-17T09:49:02.509Z,11.3
2016-05-17T09:52:14.111Z,11
2016-05-17T09:55:31.044Z,10.6
2016-05-17T09:58:33.458Z,11.1
2016-05-17T10:01:49.576Z,11.4
2016-05-17T10:04:57.724Z,12
2016-05-17T10:08:10.248Z,12.3
2016-05-17T10:11:19.537Z,12.1
2016-05-17T10:14:36.689Z,11.8
2016-05-17T10:17:39.228Z,12
2016-05-17T10:20:51.377Z,12.2
2016-05-17T10:24:04.010Z,11.8
2016-05-17T10:27:16.377Z,11.1
2016-05-17T10:30:33.887Z,10.9
2016-05-17T10:33:36.193Z,11.2
2016-05-17T10:36:53.653Z,11.8
2016-05-17T10:39:55.912Z,12
2016-05-17T10:43:06.358Z,11.8
2016-05-17T10:46:20.256Z,11.1
2016-05-17T10:49:30.205Z,10.7
2016-05-17T10:52:44.025Z,10.1
2016-05-17T10:55:55.924Z,9.8
2016-05-17T10:59:07.932Z,10.1
2016-05-17T11:02:20.034Z,10.3
2016-05-17T11:05:32.138Z,10.8
2016-05-17T11:08:44.428Z,11.4
2016-05-17T11:11:56.717Z,11.9
2016-05-17T11:15:08.850Z,11.9
2016-05-17T11:18:21.014Z,11.7
2016-05-17T11:21:33.040Z,11.8
2016-05-17T11:24:45.189Z,11.6
2016-05-17T11:27:57.260Z,11.3
2016-05-17T11:31:09.487Z,10.9
2016-05-17T11:34:21.417Z,10.7
2016-05-17T11:37:33.067Z,10.4
2016-05-17T11:40:45.279Z,10.5
2016-05-17T11:43:57.553Z,11
2016-05-17T11:47:07.983Z,11.3
2016-05-17T11:50:22.053Z,11.3
2016-05-17T11:53:32.064Z,11
2016-05-17T11:56:46.025Z,10.7
2016-05-17T11:59:58.113Z,10.4
2016-05-17T12:03:07.463Z,10.1
2016-05-17T12:06:19.082Z,9.8
2016-05-17T12:09:36.045Z,9.7
2016-05-17T12:12:38.115Z,9.6
2016-05-17T12:15:50.045Z,9.5
2016-05-17T12:19:01.991Z,9.4
2016-05-17T12:22:14.311Z,9.5
2016-05-17T12:25:31.038Z,9.7
2016-05-17T12:28:33.236Z,10
2016-05-17T12:31:45.526Z,10.4
2016-05-17T12:34:57.096Z,10.5
2016-05-17T12:38:06.698Z,10.3
2016-05-17T12:41:18.550Z,10
2016-05-17T12:44:35.686Z,9.9
2016-05-17T12:47:36.084Z,10.1
2016-05-17T12:50:50.061Z,10.5
2016-05-17T12:54:02.069Z,10.7
2016-05-17T12:57:14.187Z,10.8
2016-05-17T13:00:31.148Z,11
2016-05-17T13:03:31.610Z,11.1
2016-05-17T13:06:46.260Z,11.3
2016-05-17T13:09:58.456Z,11.3
2016-05-17T13:13:08.870Z,11.1
2016-05-17T13:16:20.613Z,11.2
2016-05-17T13:19:32.386Z,11.3
2016-05-17T13:22:44.616Z,11.2
2016-05-17T13:25:56.984Z,11.1
2016-05-17T13:29:08.835Z,10.7
2016-05-17T13:32:20.812Z,10.4
2016-05-17T13:35:32.742Z,10.3
2016-05-17T13:38:44.565Z,10.2
2016-05-17T13:41:56.496Z,10.2
2016-05-17T13:45:08.316Z,10.1
2016-05-17T13:48:19.981Z,10
2016-05-17T13:51:36.959Z,9.8
2016-05-17T13:54:39.015Z,9.6
2016-05-17T13:57:50.913Z,9.6
2016-05-17T14:01:02.640Z,9.6
2016-05-17T14:04:14.664Z,9.8
2016-05-17T14:07:31.579Z,9.9
2016-05-17T14:10:33.805Z,10.1
2016-05-17T14:13:46.018Z,10.3
2016-05-17T14:16:58.129Z,10.4
2016-05-17T14:20:10.573Z,10.4
2016-05-17T14:23:27.524Z,10.2
2016-05-17T14:26:34.570Z,10
2016-05-17T14:29:36.664Z,9.8
2016-05-17T14:32:48.679Z,9.9
2016-05-17T14:36:00.661Z,10
2016-05-17T14:39:12.670Z,10.1
2016-05-17T14:42:29.460Z,10.2
2016-05-17T14:45:36.579Z,10.3
2016-05-17T14:48:36.697Z,10.4
2016-05-17T14:51:48.599Z,10.4
2016-05-17T14:55:02.840Z,10.5
2016-05-17T14:58:14.942Z,10.4
2016-05-17T15:01:32.028Z,10.4
2016-05-17T15:04:34.474Z,10.3
2016-05-17T15:07:46.609Z,10.2
2016-05-17T15:10:58.603Z,10.1
2016-05-17T15:14:10.579Z,10
2016-05-17T15:17:22.587Z,9.9
2016-05-17T15:20:34.579Z,9.8
2016-05-17T15:23:46.715Z,9.6
2016-05-17T15:26:58.879Z,9.5
2016-05-17T15:30:11.200Z,9.5
2016-05-17T15:33:28.459Z,9.4
2016-05-17T15:36:35.607Z,9.4
2016-05-17T15:39:37.756Z,9.3
2016-05-17T15:42:49.751Z,9.4
2016-05-17T15:46:01.602Z,9.5
2016-05-17T15:49:13.470Z,9.6
2016-05-17T15:52:30.415Z,9.6
2016-05-17T15:55:32.579Z,9.8
2016-05-17T15:58:44.559Z,9.8
2016-05-17T16:01:56.661Z,9.8
2016-05-17T16:05:08.450Z,9.9
2016-05-17T16:08:20.506Z,10
2016-05-17T16:11:37.514Z,10.1
2016-05-17T16:14:39.662Z,10.1
2016-05-17T16:17:51.830Z,10.1
2016-05-17T16:21:04.056Z,10.2
2016-05-17T16:24:16.080Z,10.1
2016-05-17T16:27:33.212Z,10.1
2016-05-17T16:30:35.455Z,10
2016-05-17T16:33:47.637Z,10
2016-05-17T16:36:59.974Z,9.9
2016-05-17T16:40:12.092Z,9.9
2016-05-17T16:43:29.225Z,9.9
2016-05-17T16:46:36.342Z,9.9
2016-05-17T16:49:38.647Z,9.8
2016-05-17T16:52:51.142Z,9.8
2016-05-17T16:56:03.088Z,9.8
2016-05-17T16:59:15.362Z,9.8
2016-05-17T17:02:32.729Z,9.8
2016-05-17T17:05:35.284Z,9.8
2016-05-17T17:08:45.637Z,9.8
2016-05-17T17:12:00.272Z,9.8
2016-05-17T17:15:11.186Z,9.8
2016-05-17T17:18:28.585Z,9.8
2016-05-17T17:21:35.936Z,9.7
2016-05-17T17:24:38.475Z,9.7
2016-05-17T17:27:50.658Z,9.7
2016-05-17T17:31:02.932Z,9.6
2016-05-17T17:34:15.315Z,9.6
2016-05-17T17:37:32.620Z,9.6
2016-05-17T17:40:34.925Z,9.6
2016-05-17T17:43:46.886Z,9.5
2016-05-17T17:46:57.647Z,9.5
2016-05-17T17:50:11.077Z,9.4
2016-05-17T17:53:27.897Z,9.4
2016-05-17T17:56:35.328Z,9.4
2016-05-17T17:59:37.570Z,9.4
2016-05-17T18:02:49.955Z,9.3
2016-05-17T18:06:02.292Z,9.3
2016-05-17T18:09:14.471Z,9.3
2016-05-17T18:12:31.543Z,9.3
2016-05-17T18:15:33.973Z,9.2
2016-05-17T18:18:46.200Z,9.2
2016-05-17T18:21:58.506Z,9.2
2016-05-17T18:25:10.780Z,9.2
2016-05-17T18:28:28.070Z,9.2
2016-05-17T18:31:35.485Z,9.1
2016-05-17T18:34:37.633Z,9.1
2016-05-17T18:37:47.765Z,9.1
2016-05-17T18:41:02.230Z,9.1
2016-05-17T18:44:14.065Z,9.1
2016-05-17T18:47:31.153Z,9.1
2016-05-17T18:50:33.425Z,9.1
2016-05-17T18:53:45.622Z,9.1
2016-05-17T18:56:57.725Z,9.1
2016-05-17T19:00:10.219Z,9.1
2016-05-17T19:03:22.351Z,9.1
2016-05-17T19:06:34.656Z,9.3
2016-05-17T19:09:50.965Z,9.5
2016-05-17T19:12:59.097Z,9.6
2016-05-17T19:16:11.262Z,9.7
2016-05-17T19:19:28.347Z,9.6
2016-05-17T19:22:35.730Z,9.6
2016-05-17T19:25:38.114Z,9.5
2016-05-17T19:28:50.356Z,9.5
2016-05-17T19:32:02.258Z,9.3
2016-05-17T19:35:14.577Z,9.2
2016-05-17T19:38:29.383Z,9.2
2016-05-17T19:41:36.641Z,9.1
2016-05-17T19:44:38.946Z,9
2016-05-17T19:47:50.595Z,9
2016-05-17T19:51:03.028Z,9
2016-05-17T19:54:15.333Z,8.9
2016-05-17T19:57:29.575Z,8.9
2016-05-17T20:00:36.880Z,8.9
2016-05-17T20:03:39.263Z,8.9
2016-05-17T20:06:53.352Z,8.9
2016-05-17T20:10:03.282Z,8.9
2016-05-17T20:13:15.337Z,8.9
2016-05-17T20:16:32.344Z,8.8
2016-05-17T20:19:34.946Z,8.8
2016-05-17T20:22:47.236Z,8.8
2016-05-17T20:25:59.153Z,8.7
2016-05-17T20:29:11.473Z,8.7
2016-05-17T20:32:28.950Z,8.7
2016-05-17T20:35:36.411Z,8.7
2016-05-17T20:38:38.763Z,8.6
2016-05-17T20:41:55.290Z,8.6
2016-05-17T20:45:03.001Z,8.6
2016-05-17T20:48:15.259Z,8.5
2016-05-17T20:51:32.423Z,8.4
2016-05-17T20:54:34.776Z,8.3
2016-05-17T20:57:46.564Z,8.3
2016-05-17T21:00:58.903Z,8.3
2016-05-17T21:04:11.099Z,8.3
2016-05-17T21:07:19.638Z,8.4
2016-05-17T21:10:36.428Z,8.4
2016-05-17T21:13:38.702Z,8.4
2016-05-17T21:16:55.085Z,8.4
2016-05-17T21:20:02.939Z,8.3
2016-05-17T21:23:15.040Z,8.2
2016-05-17T21:26:31.908Z,8.1
2016-05-17T21:29:34.119Z,8.1
2016-05-17T21:32:44.097Z,8
2016-05-17T21:35:58.388Z,7.9
2016-05-17T21:39:10.318Z,7.9
2016-05-17T21:42:20.154Z,7.8
2016-05-17T21:45:36.990Z,7.9
2016-05-17T21:48:39.326Z,7.9
2016-05-17T21:51:53.741Z,8
2016-05-17T21:55:02.783Z,8.1
2016-05-17T21:58:11.745Z,8.1
2016-05-17T22:01:24.018Z,8.1
2016-05-17T22:04:36.119Z,8.1
2016-05-17T22:07:48.128Z,8.1
2016-05-17T22:11:00.185Z,8.1
2016-05-17T22:14:11.240Z,8.2
2016-05-17T22:17:23.232Z,8.2
2016-05-17T22:20:40.287Z,8.2
2016-05-17T22:23:42.529Z,8.2
2016-05-17T22:26:55.054Z,8.2
2016-05-17T22:30:06.190Z,8.1
2016-05-17T22:33:18.198Z,8.1
2016-05-17T22:36:35.253Z,8.2
2016-05-17T22:39:37.511Z,8.2
2016-05-17T22:42:49.737Z,8.2
2016-05-17T22:46:01.874Z,8.1
2016-05-17T22:49:14.037Z,8.1
2016-05-17T22:52:25.999Z,8.1
2016-05-17T22:55:37.851Z,8.1
2016-05-17T22:58:50.061Z,8.2
2016-05-17T23:02:01.884Z,8.2
2016-05-17T23:05:13.955Z,8.1
2016-05-17T23:08:26.073Z,8.1
2016-05-17T23:11:37.956Z,8.1
2016-05-17T23:14:48.104Z,8.2
2016-05-17T23:18:00.910Z,8.2
2016-05-17T23:21:09.952Z,8.2
2016-05-17T23:24:21.921Z,8.2
2016-05-17T23:27:38.908Z,8.2
2016-05-17T23:30:41.073Z,8.1
2016-05-17T23:33:53.295Z,8.1
2016-05-17T23:37:05.309Z,8.1
2016-05-17T23:40:17.246Z,8.1
2016-05-17T23:43:28.383Z,8.1
2016-05-17T23:46:40.316Z,8.1
2016-05-17T23:49:52.402Z,8
2016-05-17T23:53:04.257Z,8
2016-05-17T23:56:16.311Z,8
2016-05-17T23:59:25.100Z,8
